sensor_id;sensor_type;location;lat;lon;timestamp;pressure;altitude;pressure_sealevel;temperature;humidity
44839;BME280;30576;42.098;24.876;2022-10-31T00:00:40;100007.31;;;11.61;58.66
44839;BME280;30576;42.098;24.876;2022-10-31T00:03:06;100011.38;;;11.84;57.92
44839;BME280;30576;42.098;24.876;2022-10-31T00:05:31;100013.47;;;11.63;58.38
44839;BME280;30576;42.098;24.876;2022-10-31T00:07:56;100000.47;;;11.46;58.81
44839;BME280;30576;42.098;24.876;2022-10-31T00:10:22;100000.47;;;11.48;58.84
44839;BME280;30576;42.098;24.876;2022-10-31T00:12:47;100010.09;;;11.51;58.58
44839;BME280;30576;42.098;24.876;2022-10-31T00:15:12;99995.75;;;11.69;57.29
44839;BME280;30576;42.098;24.876;2022-10-31T00:17:37;100007.31;;;11.61;57.60
44839;BME280;30576;42.098;24.876;2022-10-31T00:20:03;100010.81;;;11.63;57.49
44839;BME280;30576;42.098;24.876;2022-10-31T00:22:28;100006.41;;;11.64;58.06
44839;BME280;30576;42.098;24.876;2022-10-31T00:24:54;100006.22;;;11.75;58.26
44839;BME280;30576;42.098;24.876;2022-10-31T00:27:19;100008.91;;;11.73;58.30
44839;BME280;30576;42.098;24.876;2022-10-31T00:29:44;100000.28;;;11.60;58.21
44839;BME280;30576;42.098;24.876;2022-10-31T00:32:09;100003.72;;;11.65;58.27
44839;BME280;30576;42.098;24.876;2022-10-31T00:34:35;99998.53;;;11.59;57.72
44839;BME280;30576;42.098;24.876;2022-10-31T00:37:00;100005.56;;;11.62;57.61
44839;BME280;30576;42.098;24.876;2022-10-31T00:39:25;100003.03;;;11.54;58.18
44839;BME280;30576;42.098;24.876;2022-10-31T00:41:51;100003.00;;;11.56;58.35
44839;BME280;30576;42.098;24.876;2022-10-31T00:44:16;100003.75;;;11.64;58.19
44839;BME280;30576;42.098;24.876;2022-10-31T00:46:41;100001.97;;;11.64;58.23
44839;BME280;30576;42.098;24.876;2022-10-31T00:49:07;100008.09;;;11.70;58.39
44839;BME280;30576;42.098;24.876;2022-10-31T01:09:14;99981.50;;;11.80;55.75
44839;BME280;30576;42.098;24.876;2022-10-31T01:11:40;99984.72;;;12.01;55.43
44839;BME280;30576;42.098;24.876;2022-10-31T01:14:05;99954.00;;;11.91;55.27
44839;BME280;30576;42.098;24.876;2022-10-31T01:16:31;99981.34;;;11.90;55.67
44839;BME280;30576;42.098;24.876;2022-10-31T01:18:56;99972.50;;;11.91;56.53
44839;BME280;30576;42.098;24.876;2022-10-31T01:21:24;99960.16;;;11.94;56.59
44839;BME280;30576;42.098;24.876;2022-10-31T01:23:50;99933.03;;;11.80;57.09
44839;BME280;30576;42.098;24.876;2022-10-31T01:26:30;99932.31;;;11.70;58.32
44839;BME280;30576;42.098;24.876;2022-10-31T01:28:58;99937.03;;;12.07;57.39
44839;BME280;30576;42.098;24.876;2022-10-31T01:31:26;99931.00;;;11.99;56.29
44839;BME280;30576;42.098;24.876;2022-10-31T01:33:52;99972.38;;;12.53;55.23
44839;BME280;30576;42.098;24.876;2022-10-31T01:36:21;99967.97;;;12.52;55.98
44839;BME280;30576;42.098;24.876;2022-10-31T01:38:48;99953.97;;;12.47;55.03
44839;BME280;30576;42.098;24.876;2022-10-31T01:41:16;99949.00;;;12.75;54.73
44839;BME280;30576;42.098;24.876;2022-10-31T01:43:43;99974.47;;;12.82;55.12
44839;BME280;30576;42.098;24.876;2022-10-31T01:46:09;99956.25;;;12.65;55.72
44839;BME280;30576;42.098;24.876;2022-10-31T01:48:34;99971.78;;;12.84;56.73
44839;BME280;30576;42.098;24.876;2022-10-31T01:51:00;99940.44;;;12.62;57.18
44839;BME280;30576;42.098;24.876;2022-10-31T01:53:25;99969.81;;;12.94;56.80
44839;BME280;30576;42.098;24.876;2022-10-31T01:55:51;99961.03;;;12.92;57.13
44839;BME280;30576;42.098;24.876;2022-10-31T01:58:18;99965.34;;;12.96;57.13
44839;BME280;30576;42.098;24.876;2022-10-31T02:00:47;99967.56;;;13.16;57.21
44839;BME280;30576;42.098;24.876;2022-10-31T02:03:16;99952.00;;;13.00;57.57
44839;BME280;30576;42.098;24.876;2022-10-31T02:05:43;99931.97;;;12.88;58.15
44839;BME280;30576;42.098;24.876;2022-10-31T02:10:37;99933.34;;;13.06;57.84
44839;BME280;30576;42.098;24.876;2022-10-31T02:13:03;99962.38;;;13.11;59.25
44839;BME280;30576;42.098;24.876;2022-10-31T02:15:30;99955.75;;;13.73;58.62
44839;BME280;30576;42.098;24.876;2022-10-31T02:17:57;99934.72;;;14.36;57.58
44839;BME280;30576;42.098;24.876;2022-10-31T02:20:24;99939.75;;;15.11;54.28
44839;BME280;30576;42.098;24.876;2022-10-31T02:25:46;99944.88;;;16.54;50.65
44839;BME280;30576;42.098;24.876;2022-10-31T02:33:57;99946.97;;;17.64;47.01
44839;BME280;30576;42.098;24.876;2022-10-31T02:36:28;99946.94;;;17.87;46.14
44839;BME280;30576;42.098;24.876;2022-10-31T02:46:50;99949.88;;;18.24;44.58
44839;BME280;30576;42.098;24.876;2022-10-31T02:49:42;99963.38;;;18.41;44.13
44839;BME280;30576;42.098;24.876;2022-10-31T02:52:30;99956.28;;;18.40;43.78
44839;BME280;30576;42.098;24.876;2022-10-31T02:54:56;99962.97;;;18.51;43.56
44839;BME280;30576;42.098;24.876;2022-10-31T02:57:36;99949.06;;;18.42;43.77
44839;BME280;30576;42.098;24.876;2022-10-31T03:00:05;99929.91;;;18.33;43.67
44839;BME280;30576;42.098;24.876;2022-10-31T03:08:31;99952.09;;;18.55;43.32
44839;BME280;30576;42.098;24.876;2022-10-31T03:11:03;99926.59;;;18.48;43.00
44839;BME280;30576;42.098;24.876;2022-10-31T03:16:18;99973.84;;;18.87;42.85
44839;BME280;30576;42.098;24.876;2022-10-31T03:18:53;99970.34;;;19.06;43.07
44839;BME280;30576;42.098;24.876;2022-10-31T03:21:31;99955.84;;;18.92;42.92
44839;BME280;30576;42.098;24.876;2022-10-31T03:24:00;99983.78;;;19.04;42.38
44839;BME280;30576;42.098;24.876;2022-10-31T03:26:27;99975.88;;;19.22;42.20
44839;BME280;30576;42.098;24.876;2022-10-31T03:29:03;99963.44;;;19.21;41.82
44839;BME280;30576;42.098;24.876;2022-10-31T03:31:35;99962.00;;;19.32;41.45
44839;BME280;30576;42.098;24.876;2022-10-31T03:34:02;99952.38;;;19.09;41.85
44839;BME280;30576;42.098;24.876;2022-10-31T03:36:33;99968.56;;;19.25;41.63
44839;BME280;30576;42.098;24.876;2022-10-31T03:39:02;100000.38;;;19.50;41.47
44839;BME280;30576;42.098;24.876;2022-10-31T03:41:31;99989.91;;;19.46;41.18
44839;BME280;30576;42.098;24.876;2022-10-31T03:44:02;99993.47;;;19.46;41.05
44839;BME280;30576;42.098;24.876;2022-10-31T03:46:30;100003.13;;;19.49;41.40
44839;BME280;30576;42.098;24.876;2022-10-31T03:48:55;99967.28;;;19.34;41.07
44839;BME280;30576;42.098;24.876;2022-10-31T03:51:38;99987.59;;;19.38;41.34
44839;BME280;30576;42.098;24.876;2022-10-31T03:54:25;100000.81;;;19.41;41.33
44839;BME280;30576;42.098;24.876;2022-10-31T03:56:56;99982.69;;;19.48;41.25
44839;BME280;30576;42.098;24.876;2022-10-31T03:59:26;99967.94;;;19.20;41.37
44839;BME280;30576;42.098;24.876;2022-10-31T04:01:57;99977.59;;;19.23;41.17
44839;BME280;30576;42.098;24.876;2022-10-31T04:04:27;99990.63;;;19.30;41.36
44839;BME280;30576;42.098;24.876;2022-10-31T04:06:54;99985.25;;;19.11;41.84
44839;BME280;30576;42.098;24.876;2022-10-31T04:09:21;99969.97;;;18.94;41.73
44839;BME280;30576;42.098;24.876;2022-10-31T04:11:53;99992.72;;;19.24;41.45
44839;BME280;30576;42.098;24.876;2022-10-31T04:14:20;100015.94;;;19.03;42.16
44839;BME280;30576;42.098;24.876;2022-10-31T04:16:47;100028.25;;;19.07;42.51
44839;BME280;30576;42.098;24.876;2022-10-31T04:19:12;100002.78;;;18.98;41.97
44839;BME280;30576;42.098;24.876;2022-10-31T04:21:39;100027.53;;;19.22;42.27
44839;BME280;30576;42.098;24.876;2022-10-31T04:24:05;100027.25;;;19.09;42.24
44839;BME280;30576;42.098;24.876;2022-10-31T04:26:30;100013.25;;;19.03;42.00
44839;BME280;30576;42.098;24.876;2022-10-31T04:28:56;100010.31;;;19.09;42.03
44839;BME280;30576;42.098;24.876;2022-10-31T04:31:21;100016.75;;;19.05;42.15
44839;BME280;30576;42.098;24.876;2022-10-31T04:33:47;100018.03;;;18.96;42.13
44839;BME280;30576;42.098;24.876;2022-10-31T04:36:12;100013.03;;;18.88;42.62
44839;BME280;30576;42.098;24.876;2022-10-31T04:38:38;100010.16;;;18.93;42.34
44839;BME280;30576;42.098;24.876;2022-10-31T04:41:03;100024.78;;;19.05;42.63
44839;BME280;30576;42.098;24.876;2022-10-31T04:43:29;100016.34;;;18.93;42.50
44839;BME280;30576;42.098;24.876;2022-10-31T04:45:54;99993.41;;;18.67;42.61
44839;BME280;30576;42.098;24.876;2022-10-31T04:48:20;100009.25;;;18.72;42.58
44839;BME280;30576;42.098;24.876;2022-10-31T04:50:45;100038.16;;;18.83;42.97
44839;BME280;30576;42.098;24.876;2022-10-31T04:53:11;100027.47;;;18.83;42.98
44839;BME280;30576;42.098;24.876;2022-10-31T04:55:36;100014.66;;;18.70;42.96
44839;BME280;30576;42.098;24.876;2022-10-31T04:58:02;100029.91;;;18.68;42.94
44839;BME280;30576;42.098;24.876;2022-10-31T05:00:28;100034.84;;;18.57;43.12
44839;BME280;30576;42.098;24.876;2022-10-31T05:02:55;100054.66;;;18.72;42.89
44839;BME280;30576;42.098;24.876;2022-10-31T05:05:23;100061.75;;;18.73;42.92
44839;BME280;30576;42.098;24.876;2022-10-31T05:07:50;100057.00;;;18.79;42.65
44839;BME280;30576;42.098;24.876;2022-10-31T05:10:18;100054.81;;;18.69;42.96
44839;BME280;30576;42.098;24.876;2022-10-31T05:12:49;100058.38;;;18.90;43.06
44839;BME280;30576;42.098;24.876;2022-10-31T05:15:16;100061.56;;;18.77;42.85
44839;BME280;30576;42.098;24.876;2022-10-31T05:17:42;100069.72;;;18.74;43.10
44839;BME280;30576;42.098;24.876;2022-10-31T05:20:09;100086.53;;;18.99;42.97
44839;BME280;30576;42.098;24.876;2022-10-31T05:22:35;100071.25;;;18.80;43.34
44839;BME280;30576;42.098;24.876;2022-10-31T05:25:01;100092.41;;;18.86;43.37
44839;BME280;30576;42.098;24.876;2022-10-31T05:27:26;100107.44;;;18.89;43.03
44839;BME280;30576;42.098;24.876;2022-10-31T05:29:52;100100.63;;;19.02;43.06
44839;BME280;30576;42.098;24.876;2022-10-31T05:32:17;100097.22;;;18.99;42.82
44839;BME280;30576;42.098;24.876;2022-10-31T05:34:42;100081.72;;;18.86;42.63
44839;BME280;30576;42.098;24.876;2022-10-31T05:37:08;100110.91;;;18.91;43.17
44839;BME280;30576;42.098;24.876;2022-10-31T05:39:33;100116.66;;;19.02;43.21
44839;BME280;30576;42.098;24.876;2022-10-31T05:41:59;100103.16;;;19.05;43.40
44839;BME280;30576;42.098;24.876;2022-10-31T05:44:24;100089.13;;;19.00;43.17
44839;BME280;30576;42.098;24.876;2022-10-31T05:46:50;100088.78;;;18.87;43.52
44839;BME280;30576;42.098;24.876;2022-10-31T05:49:15;100100.34;;;19.08;43.49
44839;BME280;30576;42.098;24.876;2022-10-31T05:51:42;100109.25;;;19.09;42.84
44839;BME280;30576;42.098;24.876;2022-10-31T05:54:08;100104.91;;;19.06;43.51
44839;BME280;30576;42.098;24.876;2022-10-31T05:56:33;100109.31;;;19.07;43.50
44839;BME280;30576;42.098;24.876;2022-10-31T05:58:58;100107.53;;;19.08;43.21
44839;BME280;30576;42.098;24.876;2022-10-31T06:01:24;100127.22;;;19.26;42.96
44839;BME280;30576;42.098;24.876;2022-10-31T06:03:49;100131.78;;;19.24;43.33
44839;BME280;30576;42.098;24.876;2022-10-31T06:06:15;100139.38;;;19.33;42.99
44839;BME280;30576;42.098;24.876;2022-10-31T06:08:40;100119.25;;;19.24;43.02
44839;BME280;30576;42.098;24.876;2022-10-31T06:11:06;100145.19;;;19.63;42.90
44839;BME280;30576;42.098;24.876;2022-10-31T06:13:31;100142.50;;;19.63;42.80
44839;BME280;30576;42.098;24.876;2022-10-31T06:15:57;100127.03;;;19.70;42.47
44839;BME280;30576;42.098;24.876;2022-10-31T06:18:22;100107.59;;;19.46;42.97
44839;BME280;30576;42.098;24.876;2022-10-31T06:20:48;100141.28;;;19.71;42.77
44839;BME280;30576;42.098;24.876;2022-10-31T06:23:13;100165.56;;;19.87;42.64
44839;BME280;30576;42.098;24.876;2022-10-31T06:25:39;100130.19;;;19.80;42.57
44839;BME280;30576;42.098;24.876;2022-10-31T06:28:05;100157.97;;;19.77;42.61
44839;BME280;30576;42.098;24.876;2022-10-31T06:30:31;100126.44;;;19.63;43.29
44839;BME280;30576;42.098;24.876;2022-10-31T06:33:02;100157.13;;;19.75;42.87
44839;BME280;30576;42.098;24.876;2022-10-31T06:35:28;100174.94;;;19.76;42.94
44839;BME280;30576;42.098;24.876;2022-10-31T06:37:54;100133.44;;;19.47;42.96
44839;BME280;30576;42.098;24.876;2022-10-31T06:40:20;100137.84;;;19.48;43.59
44839;BME280;30576;42.098;24.876;2022-10-31T06:42:45;100184.28;;;19.66;43.52
44839;BME280;30576;42.098;24.876;2022-10-31T06:45:11;100177.75;;;19.73;42.78
44839;BME280;30576;42.098;24.876;2022-10-31T06:47:36;100157.94;;;19.57;42.71
44839;BME280;30576;42.098;24.876;2022-10-31T06:50:02;100172.72;;;19.86;42.71
44839;BME280;30576;42.098;24.876;2022-10-31T06:52:27;100157.25;;;19.72;43.09
44839;BME280;30576;42.098;24.876;2022-10-31T06:54:53;100186.63;;;19.74;43.17
44839;BME280;30576;42.098;24.876;2022-10-31T06:57:18;100174.41;;;19.89;42.88
44839;BME280;30576;42.098;24.876;2022-10-31T06:59:43;100152.97;;;19.89;43.03
44839;BME280;30576;42.098;24.876;2022-10-31T07:02:09;100166.53;;;20.24;42.79
44839;BME280;30576;42.098;24.876;2022-10-31T07:04:35;100168.47;;;20.20;42.65
44839;BME280;30576;42.098;24.876;2022-10-31T07:07:01;100158.25;;;20.47;42.91
44839;BME280;30576;42.098;24.876;2022-10-31T07:09:26;100160.91;;;20.66;42.54
44839;BME280;30576;42.098;24.876;2022-10-31T07:11:52;100171.81;;;20.62;42.43
44839;BME280;30576;42.098;24.876;2022-10-31T07:14:18;100170.47;;;20.72;42.13
44839;BME280;30576;42.098;24.876;2022-10-31T07:16:43;100176.84;;;20.69;42.76
44839;BME280;30576;42.098;24.876;2022-10-31T07:19:12;100180.69;;;20.64;41.92
44839;BME280;30576;42.098;24.876;2022-10-31T07:21:38;100135.94;;;20.66;41.85
44839;BME280;30576;42.098;24.876;2022-10-31T07:24:04;100144.34;;;20.95;41.48
44839;BME280;30576;42.098;24.876;2022-10-31T07:26:29;100150.16;;;21.03;40.71
44839;BME280;30576;42.098;24.876;2022-10-31T07:28:55;100178.94;;;21.52;40.22
44839;BME280;30576;42.098;24.876;2022-10-31T07:31:20;100163.09;;;21.80;39.27
44839;BME280;30576;42.098;24.876;2022-10-31T07:33:46;100150.59;;;22.13;39.53
44839;BME280;30576;42.098;24.876;2022-10-31T07:36:11;100143.44;;;22.45;38.41
44839;BME280;30576;42.098;24.876;2022-10-31T07:38:37;100137.94;;;22.63;38.22
44839;BME280;30576;42.098;24.876;2022-10-31T07:41:02;100149.75;;;22.44;37.69
44839;BME280;30576;42.098;24.876;2022-10-31T07:43:28;100145.22;;;22.29;37.95
44839;BME280;30576;42.098;24.876;2022-10-31T07:45:53;100148.19;;;22.56;37.51
44839;BME280;30576;42.098;24.876;2022-10-31T07:48:19;100159.13;;;22.53;37.75
44839;BME280;30576;42.098;24.876;2022-10-31T07:50:45;100151.47;;;22.61;37.58
44839;BME280;30576;42.098;24.876;2022-10-31T07:53:13;100174.06;;;22.89;37.99
44839;BME280;30576;42.098;24.876;2022-10-31T07:55:39;100154.97;;;22.94;36.98
44839;BME280;30576;42.098;24.876;2022-10-31T07:58:09;100148.13;;;22.88;36.73
44839;BME280;30576;42.098;24.876;2022-10-31T08:00:36;100155.06;;;22.92;36.88
44839;BME280;30576;42.098;24.876;2022-10-31T08:03:10;100171.16;;;23.08;36.97
44839;BME280;30576;42.098;24.876;2022-10-31T08:05:36;100127.34;;;23.36;36.25
44839;BME280;30576;42.098;24.876;2022-10-31T08:08:03;100135.03;;;23.57;35.69
44839;BME280;30576;42.098;24.876;2022-10-31T08:10:28;100160.53;;;23.51;35.91
44839;BME280;30576;42.098;24.876;2022-10-31T08:12:55;100147.50;;;23.29;36.09
44839;BME280;30576;42.098;24.876;2022-10-31T08:15:21;100152.06;;;23.72;36.85
44839;BME280;30576;42.098;24.876;2022-10-31T08:17:47;100171.38;;;23.78;35.42
44839;BME280;30576;42.098;24.876;2022-10-31T08:20:12;100146.59;;;24.02;35.46
44839;BME280;30576;42.098;24.876;2022-10-31T08:22:38;100156.75;;;24.26;34.74
44839;BME280;30576;42.098;24.876;2022-10-31T08:25:04;100156.72;;;24.40;34.29
44839;BME280;30576;42.098;24.876;2022-10-31T08:27:30;100169.69;;;24.21;34.53
44839;BME280;30576;42.098;24.876;2022-10-31T08:30:00;100171.44;;;23.93;35.17
44839;BME280;30576;42.098;24.876;2022-10-31T08:32:26;100136.00;;;23.56;35.37
44839;BME280;30576;42.098;24.876;2022-10-31T08:34:52;100174.34;;;23.90;35.05
44839;BME280;30576;42.098;24.876;2022-10-31T08:37:17;100172.38;;;24.06;34.72
44839;BME280;30576;42.098;24.876;2022-10-31T08:39:48;100139.34;;;24.17;35.14
44839;BME280;30576;42.098;24.876;2022-10-31T08:42:14;100153.41;;;24.08;34.98
44839;BME280;30576;42.098;24.876;2022-10-31T08:44:39;100129.75;;;23.99;34.72
44839;BME280;30576;42.098;24.876;2022-10-31T08:47:05;100171.94;;;24.41;34.57
44839;BME280;30576;42.098;24.876;2022-10-31T08:49:30;100162.50;;;24.34;34.06
44839;BME280;30576;42.098;24.876;2022-10-31T08:51:56;100157.03;;;24.36;34.23
44839;BME280;30576;42.098;24.876;2022-10-31T08:54:21;100148.03;;;24.08;34.40
44839;BME280;30576;42.098;24.876;2022-10-31T08:56:47;100179.91;;;23.87;34.43
44839;BME280;30576;42.098;24.876;2022-10-31T08:59:12;100175.81;;;23.65;34.67
44839;BME280;30576;42.098;24.876;2022-10-31T09:01:38;100162.03;;;23.55;35.10
44839;BME280;30576;42.098;24.876;2022-10-31T09:04:03;100177.34;;;23.40;35.10
44839;BME280;30576;42.098;24.876;2022-10-31T09:06:28;100183.09;;;23.49;35.31
44839;BME280;30576;42.098;24.876;2022-10-31T09:08:54;100174.88;;;23.81;35.01
44839;BME280;30576;42.098;24.876;2022-10-31T09:11:19;100177.28;;;24.14;35.44
44839;BME280;30576;42.098;24.876;2022-10-31T09:13:45;100167.59;;;24.39;34.99
44839;BME280;30576;42.098;24.876;2022-10-31T09:16:10;100142.38;;;24.40;34.09
44839;BME280;30576;42.098;24.876;2022-10-31T09:18:36;100147.31;;;24.75;33.22
44839;BME280;30576;42.098;24.876;2022-10-31T09:21:01;100144.72;;;24.73;32.61
44839;BME280;30576;42.098;24.876;2022-10-31T09:23:27;100176.59;;;24.94;32.89
44839;BME280;30576;42.098;24.876;2022-10-31T09:25:53;100137.44;;;24.61;33.18
44839;BME280;30576;42.098;24.876;2022-10-31T09:28:21;100179.91;;;25.12;32.56
44839;BME280;30576;42.098;24.876;2022-10-31T09:30:52;100162.09;;;24.82;32.84
44839;BME280;30576;42.098;24.876;2022-10-31T09:33:18;100142.88;;;24.74;31.78
44839;BME280;30576;42.098;24.876;2022-10-31T09:35:43;100152.97;;;24.97;32.15
44839;BME280;30576;42.098;24.876;2022-10-31T09:38:11;100154.59;;;25.00;31.72
44839;BME280;30576;42.098;24.876;2022-10-31T09:40:41;100161.63;;;25.02;32.01
44839;BME280;30576;42.098;24.876;2022-10-31T09:46:07;100177.97;;;25.27;32.50
44839;BME280;30576;42.098;24.876;2022-10-31T09:51:33;100141.63;;;25.71;31.65
44839;BME280;30576;42.098;24.876;2022-10-31T09:54:04;100154.81;;;26.01;30.88
44839;BME280;30576;42.098;24.876;2022-10-31T09:56:32;100167.44;;;26.01;30.85
44839;BME280;30576;42.098;24.876;2022-10-31T09:58:59;100126.56;;;25.92;30.87
44839;BME280;30576;42.098;24.876;2022-10-31T10:01:39;100151.78;;;25.80;31.00
44839;BME280;30576;42.098;24.876;2022-10-31T10:06:53;100119.91;;;25.34;31.51
44839;BME280;30576;42.098;24.876;2022-10-31T10:09:22;100123.16;;;25.65;31.18
44839;BME280;30576;42.098;24.876;2022-10-31T10:22:23;100134.59;;;25.68;31.50
44839;BME280;30576;42.098;24.876;2022-10-31T10:27:49;100081.78;;;25.51;31.15
44839;BME280;30576;42.098;24.876;2022-10-31T10:30:35;100089.13;;;25.75;31.69
44839;BME280;30576;42.098;24.876;2022-10-31T10:33:11;100095.22;;;25.90;30.29
44839;BME280;30576;42.098;24.876;2022-10-31T10:35:53;100088.53;;;25.96;30.30
44839;BME280;30576;42.098;24.876;2022-10-31T10:40:49;100109.63;;;25.78;31.45
44839;BME280;30576;42.098;24.876;2022-10-31T10:43:32;100108.38;;;25.45;31.00
44839;BME280;30576;42.098;24.876;2022-10-31T10:59:51;100084.81;;;25.60;31.35
44839;BME280;30576;42.098;24.876;2022-10-31T11:02:26;100098.31;;;25.60;30.91
44839;BME280;30576;42.098;24.876;2022-10-31T11:04:57;100094.63;;;25.73;31.27
44839;BME280;30576;42.098;24.876;2022-10-31T11:07:23;100100.78;;;25.76;30.50
44839;BME280;30576;42.098;24.876;2022-10-31T11:09:49;100105.41;;;25.86;30.63
44839;BME280;30576;42.098;24.876;2022-10-31T11:12:31;100098.38;;;25.97;31.16
44839;BME280;30576;42.098;24.876;2022-10-31T11:15:07;100079.13;;;25.88;30.22
44839;BME280;30576;42.098;24.876;2022-10-31T11:17:41;100086.91;;;26.06;30.43
44839;BME280;30576;42.098;24.876;2022-10-31T11:22:40;100074.91;;;26.34;29.70
44839;BME280;30576;42.098;24.876;2022-10-31T11:25:22;100090.06;;;26.24;30.22
44839;BME280;30576;42.098;24.876;2022-10-31T11:28:03;100058.97;;;26.18;30.13
44839;BME280;30576;42.098;24.876;2022-10-31T11:30:30;100056.91;;;26.22;29.87
44839;BME280;30576;42.098;24.876;2022-10-31T11:33:00;100047.63;;;26.37;29.96
44839;BME280;30576;42.098;24.876;2022-10-31T11:35:26;100063.91;;;26.49;29.96
44839;BME280;30576;42.098;24.876;2022-10-31T11:37:53;100052.38;;;26.58;29.73
44839;BME280;30576;42.098;24.876;2022-10-31T11:40:25;100074.03;;;26.93;29.73
44839;BME280;30576;42.098;24.876;2022-10-31T11:42:53;100053.69;;;26.52;29.21
44839;BME280;30576;42.098;24.876;2022-10-31T11:47:50;100048.47;;;26.62;29.94
44839;BME280;30576;42.098;24.876;2022-10-31T11:50:23;100032.00;;;26.65;29.56
44839;BME280;30576;42.098;24.876;2022-10-31T13:05:22;100041.50;;;27.29;28.66
44839;BME280;30576;42.098;24.876;2022-10-31T13:08:24;100036.25;;;27.50;27.78
44839;BME280;30576;42.098;24.876;2022-10-31T13:16:30;100027.59;;;27.22;28.50
44839;BME280;30576;42.098;24.876;2022-10-31T13:19:01;100039.44;;;27.32;28.66
44839;BME280;30576;42.098;24.876;2022-10-31T13:21:37;100051.00;;;27.46;27.83
44839;BME280;30576;42.098;24.876;2022-10-31T13:24:11;100024.91;;;27.67;27.70
44839;BME280;30576;42.098;24.876;2022-10-31T13:26:43;100046.06;;;27.74;27.98
44839;BME280;30576;42.098;24.876;2022-10-31T13:29:30;100034.88;;;27.44;28.05
44839;BME280;30576;42.098;24.876;2022-10-31T13:31:59;100007.78;;;27.44;27.96
44839;BME280;30576;42.098;24.876;2022-10-31T13:34:35;100010.09;;;27.15;28.08
44839;BME280;30576;42.098;24.876;2022-10-31T13:37:17;100037.41;;;27.12;28.43
44839;BME280;30576;42.098;24.876;2022-10-31T13:45:11;100007.63;;;27.12;28.02
44839;BME280;30576;42.098;24.876;2022-10-31T13:47:36;100015.81;;;27.35;28.15
44839;BME280;30576;42.098;24.876;2022-10-31T13:52:44;100010.72;;;27.07;28.23
44839;BME280;30576;42.098;24.876;2022-10-31T13:55:40;100032.19;;;27.33;28.14
44839;BME280;30576;42.098;24.876;2022-10-31T14:01:15;100031.06;;;27.36;28.57
44839;BME280;30576;42.098;24.876;2022-10-31T14:03:44;100017.16;;;27.40;28.39
44839;BME280;30576;42.098;24.876;2022-10-31T14:06:11;100029.28;;;27.23;28.29
44839;BME280;30576;42.098;24.876;2022-10-31T14:08:40;100012.44;;;27.08;28.53
44839;BME280;30576;42.098;24.876;2022-10-31T14:11:09;100006.91;;;27.10;28.68
44839;BME280;30576;42.098;24.876;2022-10-31T14:13:44;99999.28;;;27.04;28.62
44839;BME280;30576;42.098;24.876;2022-10-31T14:16:24;100023.03;;;27.11;28.55
44839;BME280;30576;42.098;24.876;2022-10-31T14:19:16;100005.25;;;26.85;28.80
44839;BME280;30576;42.098;24.876;2022-10-31T14:21:44;100000.84;;;26.48;29.22
44839;BME280;30576;42.098;24.876;2022-10-31T14:24:15;100027.13;;;26.70;29.10
44839;BME280;30576;42.098;24.876;2022-10-31T14:26:51;100030.91;;;26.68;29.41
44839;BME280;30576;42.098;24.876;2022-10-31T14:31:44;100007.66;;;26.65;29.15
44839;BME280;30576;42.098;24.876;2022-10-31T14:37:02;100043.59;;;26.78;29.37
44839;BME280;30576;42.098;24.876;2022-10-31T14:42:39;100032.94;;;26.29;29.67
44839;BME280;30576;42.098;24.876;2022-10-31T14:45:15;100055.59;;;26.27;30.05
44839;BME280;30576;42.098;24.876;2022-10-31T14:50:54;100042.88;;;26.17;29.98
44839;BME280;30576;42.098;24.876;2022-10-31T14:53:35;100027.91;;;26.00;30.28
44839;BME280;30576;42.098;24.876;2022-10-31T14:56:02;100031.47;;;26.00;30.34
44839;BME280;30576;42.098;24.876;2022-10-31T14:58:45;100013.53;;;25.86;30.26
44839;BME280;30576;42.098;24.876;2022-10-31T15:01:28;100041.84;;;25.94;30.26
44839;BME280;30576;42.098;24.876;2022-10-31T15:04:15;100029.34;;;25.80;30.31
44839;BME280;30576;42.098;24.876;2022-10-31T15:06:45;100039.16;;;25.81;30.77
44839;BME280;30576;42.098;24.876;2022-10-31T15:09:26;100049.47;;;25.63;30.99
44839;BME280;30576;42.098;24.876;2022-10-31T15:11:51;100029.00;;;25.47;31.09
44839;BME280;30576;42.098;24.876;2022-10-31T15:14:29;100051.97;;;25.53;31.10
44839;BME280;30576;42.098;24.876;2022-10-31T15:16:59;100049.69;;;25.47;31.04
44839;BME280;30576;42.098;24.876;2022-10-31T15:19:29;100040.66;;;25.35;30.95
44839;BME280;30576;42.098;24.876;2022-10-31T15:21:57;100043.88;;;25.27;31.11
44839;BME280;30576;42.098;24.876;2022-10-31T15:24:26;100055.88;;;25.36;31.20
44839;BME280;30576;42.098;24.876;2022-10-31T15:26:54;100047.00;;;25.21;31.34
44839;BME280;30576;42.098;24.876;2022-10-31T15:29:22;100063.75;;;25.13;31.67
44839;BME280;30576;42.098;24.876;2022-10-31T15:31:56;100067.28;;;25.01;32.01
44839;BME280;30576;42.098;24.876;2022-10-31T15:37:03;100076.81;;;24.66;32.99
44839;BME280;30576;42.098;24.876;2022-10-31T15:39:28;100067.25;;;24.48;33.09
44839;BME280;30576;42.098;24.876;2022-10-31T15:41:58;100070.34;;;24.42;33.70
44839;BME280;30576;42.098;24.876;2022-10-31T15:44:34;100093.00;;;24.39;34.20
44839;BME280;30576;42.098;24.876;2022-10-31T15:47:03;100073.50;;;24.21;34.57
44839;BME280;30576;42.098;24.876;2022-10-31T15:52:02;100082.69;;;24.04;35.03
44839;BME280;30576;42.098;24.876;2022-10-31T15:54:29;100082.25;;;23.98;35.41
44839;BME280;30576;42.098;24.876;2022-10-31T15:56:55;100095.41;;;23.88;35.42
44839;BME280;30576;42.098;24.876;2022-10-31T15:59:25;100086.47;;;23.73;36.06
44839;BME280;30576;42.098;24.876;2022-10-31T16:02:01;100079.47;;;23.56;36.14
44839;BME280;30576;42.098;24.876;2022-10-31T16:04:27;100092.03;;;23.55;36.06